Time;durP1;ratioP1;P1;durP2;ratioP2;P2;SDS_P1;SDS_P2;PMS_P1;PMS_P2;Temp;Humidity;BMP_temperature;BMP_pressure;BME280_temperature;BME280_humidity;BME280_pressure;Samples;Min_cycle;Max_cycle;Signal;HPM_P1;HPM_P2
2023/01/27 00:03:20;;;;;;;15.50;5.80;;;1.30;99.90;;;;;;10183620;28;20028;-64
2023/01/27 00:08:11;;;;;;;11.38;5.35;;;1.30;99.90;;;;;;10183792;28;20032;-61
2023/01/27 00:18:14;;;;;;;14.43;6.07;;;1.40;99.90;;;;;;10183599;28;20435;-62
2023/01/27 00:28:21;;;;;;;14.18;6.82;;;1.30;99.90;;;;;;10183068;28;20088;-60
2023/01/27 00:33:25;;;;;;;13.95;5.40;;;1.30;99.90;;;;;;10182851;28;20024;-60
2023/01/27 00:38:16;;;;;;;16.70;7.25;;;1.40;99.90;;;;;;10182389;28;20466;-60
2023/01/27 00:43:06;;;;;;;16.80;6.68;;;1.40;99.90;;;;;;10186267;28;20028;-61
2023/01/27 00:47:57;;;;;;;18.25;6.95;;;1.40;99.90;;;;;;10180404;28;20055;-63
2023/01/27 00:52:48;;;;;;;17.30;7.57;;;1.50;99.90;;;;;;10188657;28;20028;-63
2023/01/27 00:57:38;;;;;;;18.73;7.32;;;1.50;99.90;;;;;;10181615;28;20099;-62
2023/01/27 01:02:29;;;;;;;18.40;7.28;;;1.30;99.90;;;;;;10180361;28;20398;-62
2023/01/27 01:07:20;;;;;;;13.77;5.97;;;1.30;99.90;;;;;;10174041;28;20027;-59
2023/01/27 01:12:10;;;;;;;13.70;7.00;;;1.50;99.90;;;;;;10162319;28;20127;-59
2023/01/27 01:17:01;;;;;;;21.00;6.57;;;1.40;99.90;;;;;;10176072;28;20105;-61
2023/01/27 01:21:51;;;;;;;15.07;5.82;;;1.40;99.90;;;;;;10174888;28;20182;-60
2023/01/27 01:26:42;;;;;;;19.17;6.68;;;1.40;99.90;;;;;;10180206;28;20482;-60
2023/01/27 01:31:33;;;;;;;11.00;5.45;;;1.40;99.90;;;;;;10179428;28;20040;-61
2023/01/27 01:36:23;;;;;;;10.27;4.95;;;1.40;99.90;;;;;;10180659;28;20027;-61
2023/01/27 01:41:17;;;;;;;6.93;3.72;;;1.40;99.90;;;;;;10184315;28;20093;-60
2023/01/27 01:46:10;;;;;;;10.00;5.30;;;1.40;99.90;;;;;;10179490;28;20036;-61
2023/01/27 01:51:04;;;;;;;5.80;3.25;;;1.40;99.90;;;;;;10185065;28;20234;-61
2023/01/27 01:55:57;;;;;;;9.32;3.22;;;1.30;99.90;;;;;;10186562;28;20031;-62
2023/01/27 02:00:48;;;;;;;8.27;4.15;;;1.30;99.90;;;;;;10179695;28;20059;-62
2023/01/27 02:05:43;;;;;;;12.43;4.32;;;1.50;99.90;;;;;;10179024;28;20024;-61
2023/01/27 02:10:34;;;;;;;6.47;3.70;;;1.50;99.90;;;;;;10178926;28;20035;-61
2023/01/27 02:15:24;;;;;;;10.63;4.68;;;1.50;99.90;;;;;;10179153;28;20024;-61
2023/01/27 02:20:18;;;;;;;10.35;3.97;;;1.40;99.90;;;;;;10178504;28;20028;-61
2023/01/27 02:25:46;;;;;;;7.93;3.55;;;1.40;99.90;;;;;;10178669;28;20497;-60
2023/01/27 02:30:37;;;;;;;9.00;4.10;;;1.30;99.90;;;;;;10169685;28;20052;-61
2023/01/27 02:36:09;;;;;;;11.73;5.35;;;1.40;99.90;;;;;;10178567;28;20024;-61
2023/01/27 02:41:27;;;;;;;9.52;4.80;;;1.40;99.90;;;;;;10176655;28;20107;-61
2023/01/27 02:46:18;;;;;;;11.88;5.25;;;1.40;99.90;;;;;;10163751;28;20532;-61
2023/01/27 02:51:09;;;;;;;10.57;4.32;;;1.50;99.90;;;;;;10193264;28;20039;-61
2023/01/27 02:55:59;;;;;;;8.95;4.00;;;1.40;99.90;;;;;;10192470;28;20039;-60
2023/01/27 03:00:50;;;;;;;8.45;4.43;;;1.50;99.90;;;;;;10185227;28;20085;-62
2023/01/27 03:05:41;;;;;;;6.00;3.58;;;1.50;99.90;;;;;;10186170;28;20032;-64
2023/01/27 03:10:31;;;;;;;8.70;4.28;;;1.30;99.90;;;;;;10185757;28;20032;-66
2023/01/27 03:20:32;;;;;;;10.90;4.38;;;1.30;99.90;;;;;;10181873;28;20190;-66
2023/01/27 03:25:22;;;;;;;8.52;3.67;;;1.30;99.90;;;;;;10185229;28;20158;-65
2023/01/27 03:30:13;;;;;;;7.10;3.80;;;1.30;99.90;;;;;;10184664;28;20432;-64
2023/01/27 03:35:04;;;;;;;8.27;3.70;;;1.30;99.90;;;;;;10184796;28;20534;-64
2023/01/27 03:50:18;;;;;;;11.93;4.30;;;1.30;99.90;;;;;;10184202;28;20402;-63
2023/01/27 03:55:09;;;;;;;7.13;4.28;;;1.30;99.90;;;;;;10197009;28;20028;-63
2023/01/27 03:59:59;;;;;;;6.43;2.95;;;1.40;99.90;;;;;;10184005;28;20020;-63
2023/01/27 04:09:59;;;;;;;8.52;3.78;;;1.40;99.90;;;;;;10160854;28;20101;-63
2023/01/27 04:14:51;;;;;;;7.47;3.47;;;1.30;99.90;;;;;;10169393;28;20077;-63
2023/01/27 04:19:42;;;;;;;10.50;4.03;;;1.40;99.90;;;;;;10181054;28;20119;-62
2023/01/27 04:24:33;;;;;;;9.48;3.92;;;1.40;99.90;;;;;;10172700;28;20119;-63
2023/01/27 04:29:26;;;;;;;6.22;3.38;;;1.40;99.90;;;;;;10182363;28;20177;-64
2023/01/27 04:34:18;;;;;;;5.72;3.85;;;1.40;99.90;;;;;;10182376;28;20034;-63
2023/01/27 04:39:09;;;;;;;6.65;3.60;;;1.40;99.90;;;;;;10182581;28;20034;-62
2023/01/27 04:44:01;;;;;;;8.02;3.35;;;1.30;99.90;;;;;;10186645;28;20646;-63
2023/01/27 04:48:52;;;;;;;10.57;3.85;;;1.40;99.90;;;;;;10181587;28;20422;-63
2023/01/27 04:53:43;;;;;;;8.23;4.47;;;1.40;99.90;;;;;;10194846;28;20044;-63
2023/01/27 04:58:33;;;;;;;8.65;3.58;;;1.50;99.90;;;;;;10181529;28;20039;-62
2023/01/27 05:03:24;;;;;;;10.95;3.28;;;1.50;99.90;;;;;;10180448;28;20016;-62
2023/01/27 05:08:15;;;;;;;9.18;3.92;;;1.40;99.90;;;;;;10179749;28;20630;-62
2023/01/27 05:13:05;;;;;;;6.55;3.45;;;1.40;99.90;;;;;;10179812;28;20258;-62
2023/01/27 05:17:56;;;;;;;9.13;3.58;;;1.40;99.90;;;;;;10180707;28;20119;-62
2023/01/27 05:22:47;;;;;;;6.60;3.35;;;1.50;99.90;;;;;;10180905;28;20044;-63
2023/01/27 05:27:37;;;;;;;8.55;3.22;;;1.40;99.90;;;;;;10180336;28;20362;-62
2023/01/27 05:32:28;;;;;;;6.43;3.95;;;1.40;99.90;;;;;;10180129;28;20031;-63
2023/01/27 05:37:19;;;;;;;10.38;4.22;;;1.40;99.90;;;;;;10179605;28;20024;-61
2023/01/27 05:42:09;;;;;;;7.18;3.55;;;1.30;99.90;;;;;;10184984;28;20027;-62
2023/01/27 05:47:00;;;;;;;6.25;3.80;;;1.40;99.90;;;;;;10179359;28;20056;-62
2023/01/27 05:51:51;;;;;;;8.23;3.80;;;1.40;99.90;;;;;;10191454;28;20075;-62
2023/01/27 05:56:41;;;;;;;9.25;3.00;;;1.30;99.90;;;;;;10179683;28;20036;-64
2023/01/27 06:01:34;;;;;;;7.68;3.50;;;1.40;99.90;;;;;;10178593;28;20027;-63
2023/01/27 06:06:27;;;;;;;9.02;4.00;;;1.40;99.90;;;;;;10164770;28;20056;-64
2023/01/27 06:11:19;;;;;;;6.55;2.92;;;1.40;99.90;;;;;;10173041;28;20028;-62
2023/01/27 06:16:12;;;;;;;8.55;3.70;;;1.40;99.90;;;;;;10168687;28;20048;-62
2023/01/27 06:21:05;;;;;;;10.63;4.55;;;1.50;99.90;;;;;;10167038;28;20107;-64
2023/01/27 06:26:02;;;;;;;7.30;3.80;;;1.50;99.90;;;;;;10178211;28;20024;-63
2023/01/27 06:30:52;;;;;;;6.90;3.60;;;1.50;99.90;;;;;;10178200;28;20032;-65
2023/01/27 06:35:43;;;;;;;7.75;3.60;;;1.50;99.90;;;;;;10160698;28;20082;-63
2023/01/27 06:40:34;;;;;;;8.35;4.30;;;1.50;99.90;;;;;;10165180;28;20027;-62
2023/01/27 06:45:25;;;;;;;9.82;3.75;;;1.40;99.90;;;;;;10181313;28;20055;-64
2023/01/27 06:50:16;;;;;;;7.00;3.60;;;1.40;99.90;;;;;;10163638;28;20434;-63
2023/01/27 06:55:07;;;;;;;9.88;4.30;;;1.40;99.90;;;;;;10189060;28;20032;-63
2023/01/27 06:59:58;;;;;;;6.95;3.85;;;1.40;99.90;;;;;;10174235;28;20034;-62
2023/01/27 07:04:48;;;;;;;11.25;4.90;;;1.50;99.90;;;;;;10176151;28;20035;-62
2023/01/27 07:09:39;;;;;;;7.03;4.68;;;1.90;99.90;;;;;;10177601;28;20032;-62
2023/01/27 07:14:30;;;;;;;9.05;5.38;;;1.60;99.90;;;;;;10177295;28;20032;-62
2023/01/27 07:19:20;;;;;;;10.18;4.85;;;1.60;99.90;;;;;;10178124;28;20036;-67
2023/01/27 07:24:11;;;;;;;7.97;4.45;;;1.60;99.90;;;;;;10178071;28;20029;-65
2023/01/27 07:29:02;;;;;;;7.40;4.03;;;1.50;99.90;;;;;;10177807;28;20393;-63
2023/01/27 07:33:52;;;;;;;7.20;4.32;;;1.50;99.90;;;;;;10185094;28;20028;-66
2023/01/27 07:38:43;;;;;;;8.90;4.40;;;1.50;99.90;;;;;;10185146;28;20032;-62
2023/01/27 07:43:34;;;;;;;10.10;4.45;;;1.50;99.90;;;;;;10188749;28;20036;-62
2023/01/27 07:48:24;;;;;;;8.60;3.95;;;1.50;99.90;;;;;;10184782;28;20206;-61
2023/01/27 07:53:15;;;;;;;6.53;3.72;;;1.50;99.90;;;;;;10185140;28;20020;-60
2023/01/27 07:58:06;;;;;;;11.48;3.97;;;1.60;99.90;;;;;;10184876;28;20020;-60
2023/01/27 08:02:58;;;;;;;8.85;4.00;;;1.50;99.90;;;;;;10183845;28;20050;-59
2023/01/27 08:07:49;;;;;;;9.95;4.65;;;1.50;99.90;;;;;;10184448;28;20400;-62
2023/01/27 08:12:41;;;;;;;8.88;3.80;;;1.50;99.90;;;;;;10184136;28;20039;-62
2023/01/27 08:17:32;;;;;;;10.73;3.88;;;1.60;99.90;;;;;;10182818;28;20190;-63
2023/01/27 08:22:23;;;;;;;7.90;4.20;;;1.60;99.90;;;;;;10183797;28;20290;-62
2023/01/27 08:27:14;;;;;;;8.73;4.22;;;1.60;99.90;;;;;;10183038;28;20017;-61
2023/01/27 08:32:05;;;;;;;8.40;4.15;;;1.70;99.90;;;;;;10176439;28;20462;-64
2023/01/27 08:36:56;;;;;;;18.73;5.78;;;1.70;99.90;;;;;;10178624;28;20116;-64
2023/01/27 08:41:46;;;;;;;5.78;3.17;;;1.70;99.90;;;;;;10184076;28;20050;-61
2023/01/27 08:46:37;;;;;;;11.77;5.25;;;1.70;99.90;;;;;;10181968;28;20409;-60
2023/01/27 08:51:28;;;;;;;10.45;4.85;;;1.80;99.90;;;;;;10183044;28;20506;-64
2023/01/27 08:56:19;;;;;;;8.57;4.20;;;1.80;99.90;;;;;;10184702;28;20016;-65
2023/01/27 09:01:10;;;;;;;25.00;10.98;;;1.80;99.90;;;;;;10184866;28;20063;-69
2023/01/27 09:06:01;;;;;;;15.85;8.45;;;2.20;99.90;;;;;;10182275;28;20031;-66
2023/01/27 09:10:52;;;;;;;11.20;5.25;;;2.10;99.90;;;;;;10181564;28;20039;-66
2023/01/27 09:15:43;;;;;;;9.48;4.10;;;2.00;99.90;;;;;;10181478;28;20403;-66
2023/01/27 09:20:35;;;;;;;11.50;4.35;;;2.10;99.90;;;;;;10181959;28;20036;-63
2023/01/27 09:25:26;;;;;;;9.38;3.95;;;2.20;99.90;;;;;;10194795;28;20052;-67
2023/01/27 09:30:17;;;;;;;10.27;4.20;;;2.20;99.90;;;;;;10192195;28;20035;-63
2023/01/27 09:35:08;;;;;;;8.48;4.20;;;2.10;99.90;;;;;;10178471;28;20103;-64
2023/01/27 09:40:05;;;;;;;6.15;3.38;;;2.20;99.90;;;;;;10186055;28;21029;-66
2023/01/27 09:45:14;;;;;;;8.57;3.85;;;2.10;99.90;;;;;;10180141;28;20100;-69
2023/01/27 09:50:23;;;;;;;8.70;3.95;;;2.30;99.90;;;;;;10183899;28;20031;-69
2023/01/27 09:55:19;;;;;;;8.30;4.15;;;2.10;99.90;;;;;;10198539;28;20100;-72
2023/01/27 10:00:16;;;;;;;7.45;3.60;;;2.20;99.90;;;;;;10184486;28;20281;-70
2023/01/27 10:05:31;;;;;;;5.97;3.33;;;2.40;99.90;;;;;;10192484;28;20024;-68
2023/01/27 10:10:42;;;;;;;7.22;4.10;;;2.60;99.90;;;;;;10198620;28;20027;-70
2023/01/27 10:15:48;;;;;;;8.10;4.28;;;2.90;99.90;;;;;;10186291;28;20047;-69
2023/01/27 10:21:16;;;;;;;8.77;4.70;;;3.20;99.90;;;;;;10187530;28;20409;-70
2023/01/27 10:26:41;;;;;;;7.00;3.58;;;3.10;99.90;;;;;;10183697;28;20016;-66
2023/01/27 10:31:44;;;;;;;7.28;3.58;;;2.90;99.90;;;;;;10193260;28;20204;-70
2023/01/27 10:36:51;;;;;;;9.75;3.50;;;2.80;99.90;;;;;;10196000;28;20027;-75
2023/01/27 10:41:54;;;;;;;9.68;4.22;;;2.80;99.90;;;;;;10207570;28;20028;-71
2023/01/27 10:47:03;;;;;;;7.95;4.22;;;2.70;99.90;;;;;;10186136;28;20489;-71
2023/01/27 10:51:59;;;;;;;5.60;3.80;;;2.70;99.90;;;;;;10193220;28;20051;-73
2023/01/27 10:57:05;;;;;;;5.65;2.88;;;2.80;99.90;;;;;;10183239;28;20135;-73
2023/01/27 11:02:08;;;;;;;6.70;3.03;;;2.80;99.90;;;;;;10185984;28;20032;-71
2023/01/27 11:06:59;;;;;;;4.47;2.60;;;2.90;99.90;;;;;;10183410;28;20031;-73
2023/01/27 11:11:52;;;;;;;7.00;3.03;;;2.80;99.90;;;;;;10200365;28;20396;-72
2023/01/27 11:16:48;;;;;;;9.20;3.08;;;2.90;99.90;;;;;;10189608;28;20027;-72
2023/01/27 11:22:05;;;;;;;6.10;2.37;;;3.00;99.90;;;;;;10191420;28;20052;-70
2023/01/27 11:27:10;;;;;;;7.55;3.75;;;3.00;99.90;;;;;;10193037;28;20331;-73
2023/01/27 11:32:16;;;;;;;10.25;3.60;;;3.00;99.90;;;;;;10189417;28;20127;-71
2023/01/27 11:37:24;;;;;;;6.25;3.10;;;2.90;99.90;;;;;;10192404;28;20081;-72
2023/01/27 11:42:16;;;;;;;7.32;3.03;;;3.00;99.90;;;;;;10189321;28;20828;-73
2023/01/27 11:47:10;;;;;;;8.32;3.30;;;3.00;99.90;;;;;;10206324;28;20058;-73
2023/01/27 11:52:10;;;;;;;7.30;2.90;;;2.90;99.90;;;;;;10213933;28;20044;-70
2023/01/27 11:57:01;;;;;;;7.13;3.38;;;2.80;99.90;;;;;;10210087;28;20455;-72
2023/01/27 12:02:06;;;;;;;8.70;3.28;;;2.90;99.90;;;;;;10193596;28;20136;-73
2023/01/27 12:07:22;;;;;;;6.10;3.05;;;2.90;99.90;;;;;;10186201;28;20335;-73
2023/01/27 12:12:12;;;;;;;4.17;2.20;;;3.00;99.90;;;;;;10190021;28;20032;-73
2023/01/27 12:17:06;;;;;;;6.95;2.80;;;3.00;99.90;;;;;;10191237;28;20269;-71
2023/01/27 12:22:06;;;;;;;5.95;3.47;;;3.00;99.90;;;;;;10192633;28;20026;-71
2023/01/27 12:26:59;;;;;;;7.38;3.03;;;3.00;99.90;;;;;;10195184;28;20039;-75
2023/01/27 12:31:52;;;;;;;5.18;2.72;;;3.00;99.90;;;;;;10189538;28;20040;-73
2023/01/27 12:36:43;;;;;;;5.60;3.63;;;3.00;99.90;;;;;;10170491;28;20217;-71
2023/01/27 12:41:36;;;;;;;6.60;2.83;;;3.10;99.90;;;;;;10198321;28;20106;-73
2023/01/27 12:46:30;;;;;;;8.38;3.45;;;3.00;99.90;;;;;;10194099;28;20118;-70
2023/01/27 12:51:33;;;;;;;6.72;3.92;;;3.30;99.90;;;;;;10213131;28;20028;-71
2023/01/27 12:56:24;;;;;;;5.40;2.58;;;3.30;99.90;;;;;;10204967;28;20016;-74
2023/01/27 13:01:35;;;;;;;4.70;2.97;;;3.30;99.90;;;;;;10193527;28;20036;-69
2023/01/27 13:06:46;;;;;;;5.53;2.80;;;3.30;99.90;;;;;;10187272;28;20052;-72
2023/01/27 13:11:39;;;;;;;6.30;3.10;;;3.40;99.90;;;;;;10165378;28;20032;-67
2023/01/27 13:16:30;;;;;;;4.32;2.80;;;3.40;99.90;;;;;;10190127;28;20081;-68
2023/01/27 13:21:25;;;;;;;5.90;2.80;;;3.40;99.90;;;;;;10202230;28;20147;-68
2023/01/27 13:26:20;;;;;;;5.37;2.57;;;3.20;99.90;;;;;;10184183;28;20032;-70
2023/01/27 13:31:38;;;;;;;5.63;2.28;;;3.10;99.90;;;;;;10188859;28;20159;-68
2023/01/27 13:37:01;;;;;;;6.53;2.40;;;3.10;99.90;;;;;;10171759;28;20434;-69
2023/01/27 13:42:09;;;;;;;5.47;2.63;;;3.10;99.90;;;;;;10193679;28;20273;-68
2023/01/27 13:47:05;;;;;;;4.05;2.65;;;3.10;99.90;;;;;;10201192;28;20794;-68
2023/01/27 13:51:55;;;;;;;5.60;2.17;;;3.10;99.90;;;;;;10209396;28;20031;-73
2023/01/27 13:57:04;;;;;;;5.32;2.40;;;3.10;99.90;;;;;;10200813;28;20031;-69
2023/01/27 14:02:28;;;;;;;5.60;2.67;;;3.20;99.90;;;;;;10188871;28;20486;-77
2023/01/27 14:07:31;;;;;;;3.58;2.17;;;3.20;99.90;;;;;;10189433;28;20016;-66
2023/01/27 14:12:57;;;;;;;3.10;1.85;;;3.30;99.90;;;;;;10182326;28;20066;-68
2023/01/27 14:18:04;;;;;;;3.17;1.90;;;3.30;99.90;;;;;;10152177;28;20605;-66
2023/01/27 14:23:13;;;;;;;5.10;2.33;;;3.30;99.90;;;;;;10187163;28;20051;-65
2023/01/27 14:28:33;;;;;;;3.65;2.22;;;3.30;99.90;;;;;;10174585;28;20020;-65
2023/01/27 14:33:27;;;;;;;4.28;2.50;;;3.40;99.90;;;;;;10179408;28;20028;-69
2023/01/27 14:38:51;;;;;;;3.22;1.90;;;3.50;99.90;;;;;;10163818;28;20032;-68
2023/01/27 14:43:44;;;;;;;6.53;2.80;;;3.40;99.90;;;;;;10184519;28;20039;-66
2023/01/27 14:48:40;;;;;;;4.40;2.28;;;3.40;99.90;;;;;;10206153;28;20044;-67
2023/01/27 14:53:38;;;;;;;4.23;3.53;;;3.40;99.90;;;;;;10200695;28;20593;-67
2023/01/27 14:59:05;;;;;;;3.92;2.28;;;3.50;99.90;;;;;;10204111;28;20288;-71
2023/01/27 15:04:13;;;;;;;3.47;1.83;;;3.60;99.90;;;;;;10177069;28;20048;-73
2023/01/27 15:09:15;;;;;;;3.17;1.80;;;3.60;99.90;;;;;;10198253;28;20044;-66
2023/01/27 15:14:34;;;;;;;4.38;2.00;;;3.60;99.90;;;;;;10183435;28;20389;-65
2023/01/27 15:20:01;;;;;;;2.83;1.75;;;3.70;99.90;;;;;;10213358;28;20524;-65
2023/01/27 15:24:58;;;;;;;3.97;2.22;;;3.60;99.90;;;;;;10143522;28;20108;-66
2023/01/27 15:29:49;;;;;;;5.95;2.97;;;3.60;99.90;;;;;;10210370;28;20043;-69
2023/01/27 15:34:39;;;;;;;6.63;2.38;;;3.50;99.90;;;;;;10181756;28;20413;-72
2023/01/27 15:39:30;;;;;;;7.32;2.30;;;3.40;99.90;;;;;;10188973;28;20050;-70
2023/01/27 15:44:24;;;;;;;3.90;2.25;;;3.30;99.90;;;;;;10214172;28;20016;-71
2023/01/27 15:49:21;;;;;;;2.42;1.70;;;3.30;99.90;;;;;;10204868;28;20118;-72
2023/01/27 15:54:17;;;;;;;4.10;1.95;;;3.10;99.90;;;;;;10204759;28;20639;-68
2023/01/27 15:59:21;;;;;;;5.10;2.53;;;3.00;99.90;;;;;;10191924;28;20181;-73
2023/01/27 16:04:22;;;;;;;5.95;2.35;;;3.00;99.90;;;;;;10172596;28;20024;-69
2023/01/27 16:09:29;;;;;;;3.72;1.77;;;3.00;99.90;;;;;;10184306;28;20047;-71
2023/01/27 16:14:23;;;;;;;3.72;1.70;;;3.00;99.90;;;;;;10186046;28;20020;-72
2023/01/27 16:19:18;;;;;;;3.05;1.83;;;3.00;99.90;;;;;;10208232;28;20038;-75
2023/01/27 16:24:27;;;;;;;6.32;2.70;;;2.80;99.90;;;;;;10213933;28;20137;-70
2023/01/27 16:29:41;;;;;;;5.88;2.20;;;2.90;99.90;;;;;;10200325;28;20119;-73
2023/01/27 16:34:40;;;;;;;4.68;2.40;;;2.90;99.90;;;;;;10175174;28;20059;-70
2023/01/27 16:39:43;;;;;;;3.88;2.33;;;2.90;99.90;;;;;;10189108;28;20054;-71
2023/01/27 16:44:42;;;;;;;3.75;1.90;;;2.90;99.90;;;;;;10212434;28;20040;-66
2023/01/27 16:49:48;;;;;;;3.85;2.22;;;2.90;99.90;;;;;;10202201;28;20036;-69
2023/01/27 16:54:43;;;;;;;3.25;2.17;;;2.90;99.90;;;;;;10212258;28;20026;-69
2023/01/27 16:59:36;;;;;;;4.80;2.20;;;2.80;99.90;;;;;;10204855;28;20400;-69
2023/01/27 17:04:29;;;;;;;5.45;2.20;;;2.80;99.90;;;;;;10192756;28;20075;-70
2023/01/27 17:09:23;;;;;;;66.90;25.27;;;3.10;99.90;;;;;;10189265;28;20097;-66
2023/01/27 17:14:14;;;;;;;17.38;8.30;;;3.30;99.90;;;;;;10183195;28;20486;-70
2023/01/27 17:19:22;;;;;;;13.05;6.20;;;3.00;99.90;;;;;;10184054;28;20040;-70
2023/01/27 17:24:29;;;;;;;8.10;3.97;;;2.90;99.90;;;;;;10181789;28;20044;-73
2023/01/27 17:29:21;;;;;;;8.45;3.75;;;2.80;99.90;;;;;;10182602;28;20517;-71
2023/01/27 17:34:17;;;;;;;6.35;2.80;;;2.80;99.90;;;;;;10186505;28;20415;-70
2023/01/27 17:39:24;;;;;;;4.70;3.00;;;2.80;99.90;;;;;;10182310;28;20067;-72
2023/01/27 17:44:14;;;;;;;5.25;2.42;;;2.90;99.90;;;;;;10187501;28;20119;-70
2023/01/27 17:49:16;;;;;;;5.30;2.55;;;2.70;99.90;;;;;;10184437;28;20100;-70
2023/01/27 17:54:22;;;;;;;2.92;1.88;;;2.80;99.90;;;;;;10191408;28;20197;-70
2023/01/27 17:59:21;;;;;;;3.53;2.58;;;2.80;99.90;;;;;;10179777;28;20044;-69
2023/01/27 18:04:15;;;;;;;4.63;2.13;;;2.80;99.90;;;;;;10180092;28;20110;-72
2023/01/27 18:09:18;;;;;;;4.63;2.45;;;2.80;99.90;;;;;;10180955;28;20190;-70
2023/01/27 18:14:16;;;;;;;5.50;2.50;;;2.80;99.90;;;;;;10178945;28;20024;-70
2023/01/27 18:19:19;;;;;;;5.32;2.47;;;2.90;99.90;;;;;;10179118;28;20032;-69
2023/01/27 18:24:28;;;;;;;3.42;2.50;;;2.80;99.90;;;;;;10179994;28;20228;-70
2023/01/27 18:29:51;;;;;;;3.17;2.65;;;2.90;99.90;;;;;;10180879;28;20040;-71
2023/01/27 18:34:48;;;;;;;3.88;2.70;;;2.90;99.90;;;;;;10170331;28;20534;-70
2023/01/27 18:39:40;;;;;;;4.35;2.13;;;2.90;99.90;;;;;;10164656;28;20107;-74
2023/01/27 18:44:34;;;;;;;4.32;3.10;;;2.90;99.90;;;;;;10179669;28;20099;-71
2023/01/27 18:49:24;;;;;;;6.85;2.90;;;2.90;99.90;;;;;;10181948;28;20228;-71
2023/01/27 18:54:15;;;;;;;3.92;2.15;;;2.90;99.90;;;;;;10167630;28;20028;-68
2023/01/27 18:59:06;;;;;;;5.15;2.55;;;2.90;99.90;;;;;;10167906;28;20532;-69
2023/01/27 19:03:57;;;;;;;4.07;2.55;;;2.90;99.90;;;;;;10181377;28;20089;-71
2023/01/27 19:08:50;;;;;;;3.75;2.63;;;2.90;99.90;;;;;;10177683;28;20050;-71
2023/01/27 19:13:44;;;;;;;3.47;2.00;;;3.00;99.90;;;;;;10178893;28;20063;-72
2023/01/27 19:18:37;;;;;;;5.47;3.28;;;2.90;99.90;;;;;;10178505;28;20027;-71
2023/01/27 19:23:28;;;;;;;3.60;2.10;;;2.90;99.90;;;;;;10178028;28;20075;-71
2023/01/27 19:28:30;;;;;;;4.57;2.47;;;2.90;99.90;;;;;;10182884;28;20032;-71
2023/01/27 19:33:22;;;;;;;5.07;3.28;;;2.90;99.90;;;;;;10185526;28;20110;-71
2023/01/27 19:38:13;;;;;;;4.57;2.38;;;2.90;99.90;;;;;;10185682;28;20022;-71
2023/01/27 19:43:04;;;;;;;5.78;2.47;;;3.00;99.90;;;;;;10188768;28;20124;-71
2023/01/27 19:47:58;;;;;;;4.57;2.25;;;3.00;99.90;;;;;;10185157;28;20458;-72
2023/01/27 19:52:49;;;;;;;4.45;2.75;;;3.00;99.90;;;;;;10196190;28;20032;-73
2023/01/27 19:57:41;;;;;;;4.93;2.78;;;3.00;99.90;;;;;;10184664;28;20027;-73
2023/01/27 20:02:32;;;;;;;6.43;3.55;;;3.00;99.90;;;;;;10184852;28;20036;-72
2023/01/27 20:07:31;;;;;;;5.85;3.35;;;3.00;99.90;;;;;;10182717;28;20057;-71
2023/01/27 20:12:22;;;;;;;9.00;4.20;;;3.00;99.90;;;;;;10184467;28;20567;-70
2023/01/27 20:17:13;;;;;;;8.38;3.55;;;3.00;99.90;;;;;;10182686;28;20032;-70
2023/01/27 20:22:04;;;;;;;6.70;3.28;;;3.00;99.90;;;;;;10186171;28;20027;-70
2023/01/27 20:26:55;;;;;;;7.47;4.43;;;3.00;99.90;;;;;;10185391;28;20028;-71
2023/01/27 20:31:48;;;;;;;5.65;3.42;;;2.90;99.90;;;;;;10184429;28;20489;-70
2023/01/27 20:36:39;;;;;;;4.72;3.17;;;2.90;99.90;;;;;;10182768;28;20481;-72
2023/01/27 20:41:29;;;;;;;7.05;3.63;;;3.00;99.90;;;;;;10186726;28;20035;-72
2023/01/27 20:46:20;;;;;;;6.63;3.15;;;2.90;99.90;;;;;;10182115;28;20040;-71
2023/01/27 20:51:12;;;;;;;5.25;2.50;;;2.90;99.90;;;;;;10189094;28;20297;-72
2023/01/27 20:56:03;;;;;;;5.13;2.95;;;2.90;99.90;;;;;;10186848;28;20070;-72
2023/01/27 21:01:03;;;;;;;9.23;3.88;;;2.80;99.90;;;;;;10182147;28;20494;-72
2023/01/27 21:05:54;;;;;;;5.82;2.75;;;2.90;99.90;;;;;;10165933;28;20104;-72
2023/01/27 21:10:44;;;;;;;6.05;3.05;;;2.90;99.90;;;;;;10172141;28;20850;-70
2023/01/27 21:15:35;;;;;;;4.65;3.15;;;2.90;99.90;;;;;;10175503;28;20038;-71
2023/01/27 21:20:26;;;;;;;5.70;2.70;;;2.90;99.90;;;;;;10181652;28;20028;-70
2023/01/27 21:25:17;;;;;;;4.57;2.67;;;2.90;99.90;;;;;;10181576;28;20063;-72
2023/01/27 21:30:08;;;;;;;5.85;3.10;;;2.90;99.90;;;;;;10184142;28;20040;-69
2023/01/27 21:34:59;;;;;;;8.27;3.50;;;2.80;99.90;;;;;;10179769;28;20027;-72
2023/01/27 21:39:50;;;;;;;6.10;3.45;;;2.90;99.90;;;;;;10183333;28;20031;-72
2023/01/27 21:50:02;;;;;;;6.90;2.65;;;2.90;99.90;;;;;;10175746;28;20542;-69
2023/01/27 21:54:53;;;;;;;7.18;2.95;;;2.90;99.90;;;;;;10188382;28;20032;-71
2023/01/27 21:59:44;;;;;;;7.90;2.72;;;2.90;99.90;;;;;;10203659;28;20024;-70
2023/01/27 22:04:38;;;;;;;7.47;3.17;;;3.00;99.90;;;;;;10181694;28;20352;-72
2023/01/27 22:09:29;;;;;;;5.53;3.53;;;2.90;99.90;;;;;;10181208;28;20048;-69
2023/01/27 22:14:19;;;;;;;5.70;3.42;;;3.00;99.90;;;;;;10182329;28;20540;-71
2023/01/27 22:19:10;;;;;;;7.40;3.97;;;3.00;99.90;;;;;;10182158;28;20024;-72
2023/01/27 22:24:01;;;;;;;9.50;4.88;;;2.90;99.90;;;;;;10182107;28;20043;-71
2023/01/27 22:28:51;;;;;;;7.15;3.65;;;2.90;99.90;;;;;;10181295;28;20043;-69
2023/01/27 22:33:42;;;;;;;5.43;2.90;;;3.00;99.90;;;;;;10183317;28;20027;-71
2023/01/27 22:38:36;;;;;;;6.25;2.60;;;3.00;99.90;;;;;;10194909;28;20096;-70
2023/01/27 22:43:27;;;;;;;7.88;3.40;;;2.90;99.90;;;;;;10196445;28;20050;-70
2023/01/27 22:48:17;;;;;;;7.75;2.97;;;2.90;99.90;;;;;;10185905;28;20520;-70
2023/01/27 22:53:09;;;;;;;5.47;2.85;;;2.90;99.90;;;;;;10181183;28;20032;-71
2023/01/27 22:58:00;;;;;;;3.75;2.63;;;3.00;99.90;;;;;;10182608;28;20107;-68
2023/01/27 23:02:51;;;;;;;3.95;2.67;;;2.90;99.90;;;;;;10186725;28;20047;-69
2023/01/27 23:07:42;;;;;;;6.82;3.00;;;2.90;99.90;;;;;;10191001;28;20026;-70
2023/01/27 23:12:32;;;;;;;5.88;2.78;;;3.00;99.90;;;;;;10186961;28;20489;-69
2023/01/27 23:17:23;;;;;;;6.85;2.55;;;2.90;99.90;;;;;;10186792;28;20024;-71
2023/01/27 23:22:13;;;;;;;4.75;2.75;;;3.00;99.90;;;;;;10194336;28;20056;-70
2023/01/27 23:27:04;;;;;;;4.53;2.28;;;3.00;99.90;;;;;;10187686;28;20024;-69
2023/01/27 23:31:55;;;;;;;6.10;3.00;;;3.00;99.90;;;;;;10185097;28;20036;-69
2023/01/27 23:36:46;;;;;;;6.32;2.80;;;3.00;99.90;;;;;;10184843;28;20488;-70
2023/01/27 23:41:37;;;;;;;4.03;2.15;;;3.00;99.90;;;;;;10170639;28;20031;-73
2023/01/27 23:46:28;;;;;;;6.68;2.90;;;3.00;99.90;;;;;;10184212;28;20040;-72
2023/01/27 23:51:20;;;;;;;4.70;2.40;;;3.00;99.90;;;;;;10191731;28;20077;-72
2023/01/27 23:56:15;;;;;;;5.90;2.65;;;3.00;99.90;;;;;;10188598;28;20059;-70
